Coastal Carolina Regional Airport
KEWN : now visible

Aeroporto :











RITROVATECI SU...

 
LOGIN :

Iscrizione | Disclaimer

   EN    FR    IT 

 









Sommario :    VFR   VFR Marginale   IFR   IFR Intensivo   IFR Molto Intensivo
Visibilità : 
Base nubi : 
>= 8 km
>= 3000ft
5 / 8 km
1000 / 3000 ft
1500m / 5 km
500 / 1000 ft
800 / 1500m
200 / 500 ft
< 800m
< 200 ft
Simboli :   Temporali  Nebbia  Neve Forte  Precipitazioni Forti  Vento > 20 kt







- Altitudine del aeroporto : 18 ft
- Codice IATA : EWN


KEWN - Coastal Carolina Regional

ULTIMO METAR :
  • 241854Z 28007KT 250V320 10SM CLR 30/16 A2988 RMK AO2 SLP118 T03000161

METARs OBSOLETI :
  • 241754Z VRB03KT 10SM CLR 30/17 A2989 RMK AO2 SLP121 T03000172 10300 20178 58018
  • 241654Z 27003KT 10SM CLR 28/16 A2991 RMK AO2 SLP126 T02830161

TAF KEWN
Valido dal 24 a 18 ore il 25 a 18 ore UTC


241720Z 2418/2518 22007KT P6SM SCT200
FIR KZDC / America del Nord



MetMap, La meteo Aeronautica in un colpo d'occhio ! - Copyright ORBIFLY Dicembre 2007 - Disclaimer

ORBIFLY MET'MAP TEAM :

Programmazione e sviluppo : Alexandra Zaïnal
Concezione e sviluppo : Baudouin d'Aumeries
Co-Programmazione e sviluppo : Marc-Olivier Méhu
Supporto tecnico e logistico : Manuel Goepfert
Aiuto per la traduzione : Arnaldo La Scala

Contatto : metmap@orbifly.com




FONTI E CREDITI :

   NOAA       Earth
Advisory